Time;durP1;ratioP1;P1;durP2;ratioP2;P2;SDS_P1;SDS_P2;PMS_P1;PMS_P2;Temp;Humidity;BMP_temperature;BMP_pressure;BME280_temperature;BME280_humidity;BME280_pressure;Samples;Min_cycle;Max_cycle;Signal;HPM_P1;HPM_P2
2021/03/11 00:00:52;;;;;;;26.23;15.55;;;8.50;99.90;;;;;;5023385;28;20360;-72
2021/03/11 00:03:23;;;;;;;25.80;15.52;;;8.50;99.90;;;;;;5028235;28;20168;-72
2021/03/11 00:05:49;;;;;;;29.98;16.00;;;8.50;99.90;;;;;;5026470;28;20025;-73
2021/03/11 00:08:14;;;;;;;28.73;15.60;;;8.50;99.90;;;;;;5028998;28;20096;-73
2021/03/11 00:10:40;;;;;;;26.85;15.43;;;8.60;99.90;;;;;;5030996;28;20168;-74
2021/03/11 00:13:07;;;;;;;25.65;15.13;;;8.50;99.90;;;;;;5023865;28;20033;-72
2021/03/11 00:15:34;;;;;;;29.92;17.23;;;8.50;99.90;;;;;;5022723;28;20030;-72
2021/03/11 00:18:00;;;;;;;28.60;16.05;;;8.60;99.90;;;;;;5060211;28;20393;-72
2021/03/11 00:20:27;;;;;;;27.50;16.10;;;8.70;99.90;;;;;;5024993;28;20021;-73
2021/03/11 00:22:54;;;;;;;25.88;15.13;;;8.70;99.90;;;;;;5026294;28;20221;-73
2021/03/11 00:25:25;;;;;;;23.95;14.73;;;8.70;99.90;;;;;;5029098;28;20489;-72
2021/03/11 00:27:51;;;;;;;27.97;14.90;;;8.60;99.90;;;;;;5024857;28;20033;-72
2021/03/11 00:30:18;;;;;;;26.98;15.70;;;8.50;99.90;;;;;;5018256;28;20413;-72
2021/03/11 00:32:44;;;;;;;28.58;15.55;;;8.60;99.90;;;;;;5027521;28;20029;-72
2021/03/11 00:35:10;;;;;;;26.55;17.30;;;8.60;99.90;;;;;;5034297;28;20026;-72
2021/03/11 00:37:37;;;;;;;28.63;16.85;;;8.70;99.90;;;;;;5031999;28;20026;-72
2021/03/11 00:40:05;;;;;;;28.10;15.68;;;8.60;99.90;;;;;;5024701;28;20064;-72
2021/03/11 00:42:31;;;;;;;29.50;16.02;;;8.60;99.90;;;;;;5024583;28;20053;-72
2021/03/11 00:44:56;;;;;;;27.48;15.70;;;8.70;99.90;;;;;;5028150;28;20068;-72
2021/03/11 00:47:23;;;;;;;25.90;15.07;;;8.70;99.90;;;;;;5026608;28;20035;-72
2021/03/11 00:49:48;;;;;;;25.95;14.98;;;8.60;99.90;;;;;;5023645;28;20478;-72
2021/03/11 00:52:14;;;;;;;24.70;14.43;;;8.70;99.90;;;;;;5035320;28;20055;-72
2021/03/11 00:54:43;;;;;;;22.50;14.35;;;8.70;99.90;;;;;;5031264;28;20112;-72
2021/03/11 00:57:09;;;;;;;25.67;15.35;;;8.70;99.90;;;;;;5022620;28;20032;-72
2021/03/11 00:59:35;;;;;;;26.60;16.02;;;8.70;99.90;;;;;;5027346;28;20121;-72
2021/03/11 01:02:01;;;;;;;28.08;15.30;;;8.80;99.90;;;;;;5030410;28;20401;-73
2021/03/11 01:04:27;;;;;;;27.55;15.95;;;8.80;99.90;;;;;;5017289;28;20117;-73
2021/03/11 01:06:52;;;;;;;22.05;14.02;;;8.80;99.90;;;;;;5029334;28;20099;-72
2021/03/11 01:09:18;;;;;;;23.83;13.82;;;8.70;99.90;;;;;;5022365;28;20096;-72
2021/03/11 01:11:44;;;;;;;22.48;13.73;;;8.70;99.90;;;;;;5020163;28;20030;-72
2021/03/11 01:14:09;;;;;;;22.52;14.68;;;8.70;99.90;;;;;;5026005;28;20052;-72
2021/03/11 01:16:35;;;;;;;24.65;13.75;;;8.70;99.90;;;;;;5031213;28;20038;-73
2021/03/11 01:19:01;;;;;;;20.67;12.95;;;8.80;99.90;;;;;;5019019;28;20518;-72
2021/03/11 01:21:27;;;;;;;21.70;12.85;;;8.80;99.90;;;;;;5024625;28;20076;-73
2021/03/11 01:23:52;;;;;;;18.55;13.02;;;8.80;99.90;;;;;;5026772;28;20024;-73
2021/03/11 01:26:18;;;;;;;19.45;11.88;;;8.90;99.90;;;;;;5022761;28;20461;-72
2021/03/11 01:28:44;;;;;;;19.60;12.75;;;8.80;99.90;;;;;;5024560;28;20424;-72
2021/03/11 01:31:09;;;;;;;16.65;10.90;;;8.90;99.90;;;;;;5034214;28;20479;-72
2021/03/11 01:33:35;;;;;;;17.40;11.07;;;8.90;99.90;;;;;;5026067;28;20049;-73
2021/03/11 01:36:00;;;;;;;19.17;11.70;;;9.00;99.90;;;;;;5020044;28;20443;-72
2021/03/11 01:38:26;;;;;;;17.85;10.77;;;8.90;99.90;;;;;;5022738;28;20030;-73
2021/03/11 01:40:53;;;;;;;15.82;10.20;;;8.90;99.90;;;;;;5029749;28;20091;-73
2021/03/11 01:43:19;;;;;;;16.70;11.23;;;9.00;99.90;;;;;;5028117;28;20029;-72
2021/03/11 01:45:45;;;;;;;15.75;10.70;;;8.90;99.90;;;;;;5021049;28;20026;-73
2021/03/11 01:48:10;;;;;;;16.23;10.93;;;9.00;99.90;;;;;;5026692;28;20370;-73
2021/03/11 01:50:36;;;;;;;14.77;10.27;;;9.00;99.90;;;;;;5025227;28;20402;-73
2021/03/11 01:53:02;;;;;;;15.38;10.68;;;9.00;99.90;;;;;;5027852;28;20037;-73
2021/03/11 01:55:28;;;;;;;16.20;11.05;;;9.00;99.90;;;;;;5020407;28;20484;-73
2021/03/11 01:57:55;;;;;;;15.85;10.52;;;9.00;99.90;;;;;;5023865;28;20116;-73
2021/03/11 02:00:21;;;;;;;15.93;10.93;;;8.90;99.90;;;;;;5030718;28;20113;-72
2021/03/11 02:02:47;;;;;;;15.20;10.00;;;8.90;99.90;;;;;;5026415;28;20108;-73
2021/03/11 02:05:17;;;;;;;15.27;10.45;;;8.90;99.90;;;;;;5023366;28;20024;-73
2021/03/11 02:07:43;;;;;;;14.38;10.50;;;8.90;99.90;;;;;;5022532;28;20032;-72
2021/03/11 02:10:12;;;;;;;14.05;9.82;;;9.00;99.90;;;;;;5019761;28;20036;-73
2021/03/11 02:12:46;;;;;;;15.02;10.20;;;8.90;99.90;;;;;;5023769;28;20079;-72
2021/03/11 02:15:35;;;;;;;15.13;10.20;;;9.00;99.90;;;;;;5040339;28;20383;-72
2021/03/11 02:18:26;;;;;;;14.95;10.75;;;9.00;99.90;;;;;;5027510;28;20041;-72
2021/03/11 02:20:53;;;;;;;15.77;10.18;;;9.00;99.90;;;;;;5018120;28;20041;-72
2021/03/11 02:23:28;;;;;;;16.75;10.90;;;9.00;99.90;;;;;;5020744;28;20084;-73
2021/03/11 02:26:23;;;;;;;13.40;10.18;;;9.00;99.90;;;;;;5023825;28;20025;-73
2021/03/11 02:28:56;;;;;;;14.95;10.57;;;9.00;99.90;;;;;;5024123;28;20018;-73
2021/03/11 02:31:24;;;;;;;15.70;10.85;;;9.00;99.90;;;;;;5021424;28;20046;-73
2021/03/11 02:33:53;;;;;;;15.20;9.80;;;9.00;99.90;;;;;;5019597;28;20018;-73
2021/03/11 02:36:20;;;;;;;16.52;10.80;;;9.00;99.90;;;;;;5026382;28;20083;-73
2021/03/11 02:38:47;;;;;;;15.48;10.30;;;9.00;99.90;;;;;;5024830;28;20021;-73
2021/03/11 02:41:16;;;;;;;15.93;10.25;;;9.00;99.90;;;;;;5029548;28;20045;-73
2021/03/11 02:43:46;;;;;;;17.90;11.65;;;9.00;99.90;;;;;;5018175;28;20061;-73
2021/03/11 02:46:14;;;;;;;18.38;11.65;;;9.00;99.90;;;;;;5025510;28;20052;-73
2021/03/11 02:48:41;;;;;;;19.77;12.02;;;9.00;99.90;;;;;;5020166;28;20478;-72
2021/03/11 02:51:08;;;;;;;17.55;12.63;;;9.00;99.90;;;;;;5026357;28;20036;-73
2021/03/11 02:53:34;;;;;;;19.50;13.20;;;9.00;99.90;;;;;;5024458;28;20022;-72
2021/03/11 02:56:00;;;;;;;15.75;11.95;;;9.00;99.90;;;;;;5022675;28;20018;-73
2021/03/11 02:58:27;;;;;;;19.35;13.10;;;9.00;99.90;;;;;;5015870;28;20040;-73
2021/03/11 03:00:53;;;;;;;16.25;11.25;;;9.00;99.90;;;;;;5021902;28;20044;-73
2021/03/11 03:03:19;;;;;;;19.25;12.65;;;9.00;99.90;;;;;;5026460;28;20054;-73
2021/03/11 03:05:49;;;;;;;18.33;11.35;;;8.90;99.90;;;;;;5027743;28;20032;-73
2021/03/11 03:08:16;;;;;;;20.70;13.27;;;8.90;99.90;;;;;;5020134;28;20538;-73
2021/03/11 03:10:42;;;;;;;16.80;11.70;;;8.90;99.90;;;;;;5025560;28;20108;-72
2021/03/11 03:13:14;;;;;;;20.67;13.07;;;8.90;99.90;;;;;;5019856;28;20115;-72
2021/03/11 03:15:41;;;;;;;19.20;14.13;;;9.00;99.90;;;;;;5019341;28;20029;-72
2021/03/11 03:18:08;;;;;;;20.85;14.43;;;9.00;99.90;;;;;;5018254;28;20296;-72
2021/03/11 03:20:34;;;;;;;23.92;15.07;;;9.00;99.90;;;;;;5026308;28;20164;-72
2021/03/11 03:23:04;;;;;;;23.60;14.25;;;9.10;99.90;;;;;;5026571;28;20100;-72
2021/03/11 03:25:30;;;;;;;24.08;15.27;;;9.00;99.90;;;;;;5027456;28;20500;-72
2021/03/11 03:27:56;;;;;;;23.45;14.80;;;9.00;99.90;;;;;;5023599;28;20038;-72
2021/03/11 03:30:23;;;;;;;27.13;15.52;;;9.10;99.90;;;;;;5020895;28;20041;-72
2021/03/11 03:32:48;;;;;;;24.25;16.77;;;9.10;99.90;;;;;;5028602;28;20052;-72
2021/03/11 03:35:15;;;;;;;26.00;16.20;;;9.10;99.90;;;;;;5032987;28;20479;-72
2021/03/11 03:37:41;;;;;;;26.35;17.00;;;9.20;99.90;;;;;;5029059;28;20037;-72
2021/03/11 03:40:11;;;;;;;23.95;15.82;;;9.20;99.90;;;;;;5023403;28;20022;-72
2021/03/11 03:42:41;;;;;;;25.70;16.92;;;9.20;99.90;;;;;;5031820;28;20493;-72
2021/03/11 03:45:12;;;;;;;25.00;15.55;;;9.20;99.90;;;;;;5030464;28;20466;-72
2021/03/11 03:47:42;;;;;;;24.20;15.25;;;9.20;99.90;;;;;;5024208;28;20045;-72
2021/03/11 03:50:10;;;;;;;27.35;17.60;;;9.10;99.90;;;;;;5030413;28;20482;-72
2021/03/11 03:52:37;;;;;;;27.02;16.30;;;9.20;99.90;;;;;;5028030;28;20033;-72
2021/03/11 03:55:05;;;;;;;26.33;17.38;;;9.30;99.90;;;;;;5025666;28;20025;-72
2021/03/11 03:57:31;;;;;;;24.00;16.50;;;9.30;99.90;;;;;;5032300;28;20060;-73
2021/03/11 03:59:57;;;;;;;28.20;16.38;;;9.30;99.90;;;;;;5023535;28;20040;-73
2021/03/11 04:02:24;;;;;;;28.70;17.23;;;9.30;99.90;;;;;;5028783;28;20132;-73
2021/03/11 04:04:52;;;;;;;24.67;16.60;;;9.30;99.90;;;;;;5031958;28;20046;-73
2021/03/11 04:07:22;;;;;;;26.63;17.98;;;9.30;99.90;;;;;;5032625;28;20044;-72
2021/03/11 04:09:48;;;;;;;28.95;17.75;;;9.30;99.90;;;;;;5028272;28;20163;-73
2021/03/11 04:12:16;;;;;;;30.45;16.50;;;9.40;99.90;;;;;;5026659;28;20105;-73
2021/03/11 04:14:43;;;;;;;27.40;17.65;;;9.40;99.90;;;;;;5031190;28;20030;-72
2021/03/11 04:17:10;;;;;;;23.67;15.98;;;9.40;99.90;;;;;;5028890;28;20018;-73
2021/03/11 04:19:36;;;;;;;27.83;16.80;;;9.50;99.90;;;;;;5025868;28;20216;-72
2021/03/11 04:22:03;;;;;;;25.92;16.08;;;9.40;99.90;;;;;;5021935;28;20090;-73
2021/03/11 04:24:30;;;;;;;25.00;15.95;;;9.50;99.90;;;;;;5027320;28;20029;-73
2021/03/11 04:26:59;;;;;;;24.40;15.95;;;9.50;99.90;;;;;;5021511;28;20017;-72
2021/03/11 04:29:25;;;;;;;33.28;18.77;;;9.50;99.90;;;;;;5028236;28;20116;-73
2021/03/11 04:31:51;;;;;;;31.02;17.83;;;9.50;99.90;;;;;;5025870;28;20104;-73
2021/03/11 04:34:16;;;;;;;26.48;17.95;;;9.60;99.90;;;;;;5024374;28;20034;-73
2021/03/11 04:36:42;;;;;;;27.02;17.15;;;9.60;99.90;;;;;;5024406;28;20169;-73
2021/03/11 04:39:08;;;;;;;28.23;16.67;;;9.60;99.90;;;;;;5024986;28;20095;-73
2021/03/11 04:41:34;;;;;;;28.05;15.65;;;9.60;99.90;;;;;;5025537;28;20494;-73
2021/03/11 04:44:02;;;;;;;28.70;16.35;;;9.60;99.90;;;;;;5022705;28;20026;-73
2021/03/11 04:46:28;;;;;;;25.35;15.30;;;9.50;99.90;;;;;;5026144;28;20022;-72
2021/03/11 04:48:56;;;;;;;24.23;16.17;;;9.50;99.90;;;;;;5030938;28;20025;-72
2021/03/11 04:51:22;;;;;;;24.30;15.80;;;9.60;99.90;;;;;;5030761;28;20478;-73
2021/03/11 04:53:52;;;;;;;25.50;15.40;;;9.60;99.90;;;;;;5031624;28;20060;-73
2021/03/11 04:56:17;;;;;;;20.20;14.23;;;9.60;99.90;;;;;;5024024;28;20041;-72
2021/03/11 04:58:43;;;;;;;20.23;12.98;;;9.60;99.90;;;;;;5026532;28;20588;-73
2021/03/11 05:01:12;;;;;;;20.88;14.38;;;9.60;99.90;;;;;;5023941;28;20034;-73
2021/03/11 05:03:42;;;;;;;24.67;14.07;;;9.60;99.90;;;;;;5029909;28;20021;-73
2021/03/11 05:06:08;;;;;;;19.38;13.45;;;9.70;99.90;;;;;;5030461;28;20018;-73
2021/03/11 05:08:33;;;;;;;22.42;14.30;;;9.70;99.90;;;;;;5028093;28;20108;-72
2021/03/11 05:10:59;;;;;;;20.40;13.38;;;9.70;99.90;;;;;;5027859;28;20076;-73
2021/03/11 05:13:24;;;;;;;21.75;13.90;;;9.70;99.90;;;;;;5031890;28;20470;-73
2021/03/11 05:15:50;;;;;;;18.73;12.80;;;9.80;99.90;;;;;;5024929;28;20025;-72
2021/03/11 05:18:16;;;;;;;18.67;12.75;;;9.80;99.90;;;;;;5023805;28;20034;-73
2021/03/11 05:20:42;;;;;;;22.35;14.10;;;9.80;99.90;;;;;;5024159;28;20037;-73
2021/03/11 05:23:07;;;;;;;21.67;13.82;;;9.80;99.90;;;;;;5031451;28;20517;-73
2021/03/11 05:25:33;;;;;;;22.80;13.40;;;9.80;99.90;;;;;;5029326;28;20037;-72
2021/03/11 05:27:58;;;;;;;19.50;12.02;;;9.90;99.90;;;;;;5024190;28;20036;-72
2021/03/11 05:30:24;;;;;;;17.48;11.90;;;9.90;99.90;;;;;;5032225;28;20123;-72
2021/03/11 05:32:50;;;;;;;21.80;12.35;;;10.00;99.90;;;;;;5027061;28;20033;-72
2021/03/11 05:35:16;;;;;;;18.90;12.80;;;9.90;99.90;;;;;;5023680;28;20030;-72
2021/03/11 05:37:42;;;;;;;15.60;11.05;;;10.00;99.90;;;;;;5018609;28;20080;-72
2021/03/11 05:40:11;;;;;;;19.20;12.55;;;10.00;99.90;;;;;;5020097;28;20025;-72
2021/03/11 05:42:38;;;;;;;19.17;12.68;;;10.00;99.90;;;;;;5021909;28;20399;-72
2021/03/11 05:45:06;;;;;;;18.30;12.70;;;10.10;99.90;;;;;;5027551;28;20028;-71
2021/03/11 05:47:33;;;;;;;19.08;13.45;;;10.10;99.90;;;;;;5026563;28;20060;-72
2021/03/11 05:50:00;;;;;;;17.10;12.00;;;10.10;99.90;;;;;;5022194;28;20060;-72
2021/03/11 05:52:28;;;;;;;21.42;12.30;;;10.10;99.90;;;;;;5031265;28;20026;-72
2021/03/11 05:54:54;;;;;;;19.63;13.98;;;10.20;99.90;;;;;;5029858;28;20057;-72
2021/03/11 05:57:20;;;;;;;21.73;13.20;;;10.10;99.90;;;;;;5029108;28;20061;-72
2021/03/11 05:59:46;;;;;;;18.60;12.75;;;10.20;99.90;;;;;;5024457;28;20577;-72
2021/03/11 06:02:11;;;;;;;20.00;12.38;;;10.20;99.90;;;;;;5027435;28;20095;-73
2021/03/11 06:04:39;;;;;;;17.83;12.00;;;10.30;99.90;;;;;;5024370;28;20022;-72
2021/03/11 06:07:08;;;;;;;18.65;11.75;;;10.30;99.90;;;;;;5032418;28;20021;-73
2021/03/11 06:09:36;;;;;;;18.75;12.27;;;10.30;99.90;;;;;;5019718;28;20478;-72
2021/03/11 06:12:04;;;;;;;16.80;12.13;;;10.30;99.90;;;;;;5022001;28;20109;-73
2021/03/11 06:14:35;;;;;;;18.08;12.25;;;10.40;99.90;;;;;;5024926;28;20083;-73
2021/03/11 06:17:06;;;;;;;20.58;12.52;;;10.30;99.90;;;;;;5016694;28;20030;-73
2021/03/11 06:19:32;;;;;;;20.90;13.40;;;10.30;99.90;;;;;;5026536;28;20100;-73
2021/03/11 06:21:59;;;;;;;18.08;12.18;;;10.40;99.90;;;;;;5023509;28;20037;-71
2021/03/11 06:24:24;;;;;;;20.13;13.05;;;10.40;99.90;;;;;;5028680;28;20420;-72
2021/03/11 06:26:50;;;;;;;19.75;13.25;;;10.40;99.90;;;;;;5026247;28;20140;-72
2021/03/11 06:29:24;;;;;;;19.70;13.10;;;10.40;99.90;;;;;;5025445;28;20398;-70
2021/03/11 06:31:58;;;;;;;21.25;13.38;;;10.50;99.90;;;;;;5026896;28;20026;-72
2021/03/11 06:34:25;;;;;;;22.50;14.35;;;10.50;99.90;;;;;;5017352;28;20378;-72
2021/03/11 06:36:50;;;;;;;23.02;14.23;;;10.50;99.90;;;;;;5024279;28;20459;-72
2021/03/11 06:39:27;;;;;;;21.17;13.88;;;10.50;99.90;;;;;;5030689;28;20029;-72
2021/03/11 06:41:53;;;;;;;19.92;13.25;;;10.50;99.90;;;;;;5020944;28;20046;-72
2021/03/11 06:44:32;;;;;;;23.65;14.95;;;10.40;99.90;;;;;;5022964;28;20029;-72
2021/03/11 06:46:59;;;;;;;24.35;13.63;;;10.40;99.90;;;;;;5033164;28;20436;-72
2021/03/11 06:49:25;;;;;;;23.38;15.38;;;10.50;99.90;;;;;;5027720;28;20069;-72
2021/03/11 06:52:14;;;;;;;21.05;12.90;;;10.50;99.90;;;;;;5025717;28;20496;-72
2021/03/11 06:55:00;;;;;;;21.42;13.18;;;10.50;99.90;;;;;;5024413;28;20152;-72
2021/03/11 06:57:34;;;;;;;22.52;13.77;;;10.40;99.90;;;;;;5023750;28;20026;-72
2021/03/11 07:00:01;;;;;;;17.92;12.98;;;10.50;99.90;;;;;;5021074;28;20063;-72
2021/03/11 07:02:29;;;;;;;22.23;14.02;;;10.50;99.90;;;;;;5024973;28;20053;-72
2021/03/11 07:05:11;;;;;;;21.88;13.40;;;10.50;99.90;;;;;;5044699;28;20072;-72
2021/03/11 07:07:37;;;;;;;;;;;10.60;99.90;;;;;;5034511;28;20029;-72
2021/03/11 07:10:03;;;;;;;20.60;11.93;;;10.70;99.90;;;;;;5030787;28;20054;-72
2021/03/11 07:12:58;;;;;;;20.45;11.63;;;10.70;99.90;;;;;;5023497;28;20070;-72
2021/03/11 07:15:26;;;;;;;19.77;11.85;;;10.80;99.90;;;;;;5023443;28;20025;-72
2021/03/11 07:17:53;;;;;;;19.13;11.23;;;10.70;99.90;;;;;;5031936;28;20061;-72
2021/03/11 07:20:27;;;;;;;18.35;11.27;;;10.80;99.90;;;;;;5029495;28;20022;-72
2021/03/11 07:23:14;;;;;;;16.58;10.20;;;11.00;99.90;;;;;;5025173;28;20030;-72
2021/03/11 07:25:45;;;;;;;17.50;9.57;;;11.00;99.90;;;;;;5027871;28;20014;-72
2021/03/11 07:28:23;;;;;;;14.70;9.10;;;11.10;99.90;;;;;;5032639;28;20489;-71
2021/03/11 07:30:54;;;;;;;12.32;8.02;;;11.20;99.90;;;;;;5030723;28;20032;-72
2021/03/11 07:33:21;;;;;;;15.48;8.43;;;11.20;99.90;;;;;;5024644;28;20429;-72
2021/03/11 07:35:48;;;;;;;13.25;8.48;;;11.20;99.90;;;;;;5028824;28;20478;-72
2021/03/11 07:38:24;;;;;;;15.15;7.78;;;11.30;99.90;;;;;;5025266;28;20103;-72
2021/03/11 07:40:55;;;;;;;14.18;7.38;;;11.30;99.90;;;;;;5032570;28;20069;-72
2021/03/11 07:43:22;;;;;;;12.63;7.50;;;11.40;99.90;;;;;;5030709;28;20026;-72
2021/03/11 07:45:48;;;;;;;11.70;6.70;;;11.50;99.90;;;;;;5022896;28;20067;-72
2021/03/11 07:48:15;;;;;;;11.63;6.47;;;11.50;99.90;;;;;;5028770;28;20029;-72
2021/03/11 07:50:42;;;;;;;12.63;5.03;;;11.40;99.90;;;;;;5028404;28;20493;-72
2021/03/11 07:53:08;;;;;;;7.78;4.95;;;11.50;99.90;;;;;;5027079;28;20072;-73
2021/03/11 07:55:34;;;;;;;11.73;6.05;;;11.60;99.90;;;;;;5034954;28;20033;-73
2021/03/11 07:58:09;;;;;;;10.32;5.25;;;11.60;99.90;;;;;;5025816;28;20524;-73
2021/03/11 08:00:35;;;;;;;10.05;5.10;;;11.60;99.90;;;;;;5053357;28;20026;-73
2021/03/11 08:03:06;;;;;;;9.57;5.70;;;11.70;99.90;;;;;;5029353;28;20034;-73
2021/03/11 08:05:32;;;;;;;12.68;5.30;;;11.70;99.90;;;;;;5023448;28;20148;-72
2021/03/11 08:08:17;;;;;;;10.27;5.57;;;11.80;99.90;;;;;;5022498;28;20516;-72
2021/03/11 08:10:57;;;;;;;9.85;4.70;;;11.80;99.90;;;;;;5053653;28;20478;-72
2021/03/11 08:13:26;;;;;;;9.73;4.35;;;11.90;99.90;;;;;;5030420;28;20034;-72
2021/03/11 08:15:52;;;;;;;9.25;3.88;;;11.80;99.90;;;;;;5025417;28;20029;-72
2021/03/11 08:18:33;;;;;;;8.02;3.55;;;11.80;99.90;;;;;;5018400;28;20431;-71
2021/03/11 08:21:06;;;;;;;8.52;3.85;;;11.90;99.90;;;;;;5019964;28;20037;-73
2021/03/11 08:23:34;;;;;;;13.27;4.22;;;11.90;99.90;;;;;;5032674;28;20021;-73
2021/03/11 08:26:03;;;;;;;14.77;3.47;;;11.90;99.90;;;;;;5026681;28;20036;-73
2021/03/11 08:28:29;;;;;;;13.60;3.90;;;11.90;99.90;;;;;;5010374;28;20104;-73
2021/03/11 08:31:04;;;;;;;13.52;3.45;;;11.90;99.90;;;;;;5012999;28;20071;-73
2021/03/11 08:33:29;;;;;;;11.07;3.50;;;12.00;99.90;;;;;;5030493;28;20104;-73
2021/03/11 08:35:58;;;;;;;12.55;2.83;;;12.00;99.90;;;;;;5034126;28;20112;-73
2021/03/11 08:38:24;;;;;;;12.65;3.08;;;12.00;99.90;;;;;;5023602;28;20064;-73
2021/03/11 08:40:52;;;;;;;13.40;2.92;;;12.10;99.90;;;;;;5034902;28;20060;-73
2021/03/11 08:43:39;;;;;;;9.57;2.75;;;12.20;99.90;;;;;;5040187;28;20082;-73
2021/03/11 08:46:12;;;;;;;13.82;2.78;;;12.30;99.90;;;;;;5033575;28;20048;-72
2021/03/11 08:48:49;;;;;;;17.90;3.83;;;12.40;99.90;;;;;;5025277;28;20100;-73
2021/03/11 08:51:17;;;;;;;17.10;3.00;;;12.50;99.90;;;;;;5025197;28;20385;-73
2021/03/11 08:53:45;;;;;;;23.77;4.57;;;12.50;99.90;;;;;;5027927;28;20524;-73
2021/03/11 08:56:16;;;;;;;15.55;3.65;;;12.50;99.90;;;;;;5025855;28;20577;-73
2021/03/11 08:59:03;;;;;;;17.38;4.13;;;12.50;99.90;;;;;;5029743;28;20025;-73
2021/03/11 09:01:31;;;;;;;24.10;5.13;;;12.60;99.90;;;;;;5034834;28;20488;-73
2021/03/11 09:04:01;;;;;;;27.35;5.45;;;12.70;99.90;;;;;;5031028;28;20025;-73
2021/03/11 09:07:05;;;;;;;25.25;4.90;;;12.80;99.90;;;;;;5045705;28;20029;-73
2021/03/11 09:09:36;;;;;;;27.83;6.10;;;12.70;99.90;;;;;;5027584;28;20025;-73
2021/03/11 09:12:14;;;;;;;27.05;5.28;;;12.80;99.90;;;;;;5029504;28;20026;-73
2021/03/11 09:14:47;;;;;;;24.95;6.13;;;12.90;99.90;;;;;;5027220;28;20018;-73
2021/03/11 09:17:15;;;;;;;26.83;5.32;;;13.10;99.90;;;;;;5036433;28;20036;-73
2021/03/11 09:19:51;;;;;;;29.85;5.32;;;13.10;99.90;;;;;;5028116;28;20017;-73
2021/03/11 09:22:33;;;;;;;24.15;4.38;;;13.10;99.90;;;;;;5029118;28;20037;-73
2021/03/11 09:25:22;;;;;;;24.98;5.55;;;13.20;99.90;;;;;;5038372;28;20381;-73
2021/03/11 09:28:00;;;;;;;21.67;4.97;;;13.40;99.90;;;;;;5028697;28;20029;-73
2021/03/11 09:30:27;;;;;;;24.80;5.15;;;13.50;99.90;;;;;;5029881;28;20058;-73
2021/03/11 09:32:52;;;;;;;18.67;4.43;;;13.60;99.90;;;;;;5032416;28;20024;-73
2021/03/11 09:35:19;;;;;;;30.40;5.30;;;13.60;99.90;;;;;;5030869;28;20029;-73
2021/03/11 09:37:52;;;;;;;23.58;4.65;;;13.70;99.90;;;;;;5027625;28;20410;-73
2021/03/11 09:40:23;;;;;;;22.95;4.97;;;13.80;99.90;;;;;;5026745;28;20025;-73
2021/03/11 09:43:17;;;;;;;22.75;4.90;;;13.70;99.90;;;;;;5029100;28;20033;-72
2021/03/11 09:46:05;;;;;;;32.70;5.20;;;14.00;99.90;;;;;;5026681;28;20042;-73
2021/03/11 09:48:32;;;;;;;23.15;4.53;;;14.00;99.90;;;;;;5026965;28;20030;-73
2021/03/11 09:50:58;;;;;;;16.02;4.00;;;13.80;99.90;;;;;;5028277;28;20021;-73
2021/03/11 09:53:30;;;;;;;14.80;4.20;;;13.70;99.90;;;;;;5032971;28;20033;-73
2021/03/11 09:55:56;;;;;;;22.02;4.20;;;13.70;99.90;;;;;;5028512;28;20541;-73
2021/03/11 09:58:22;;;;;;;24.48;4.30;;;13.60;99.90;;;;;;5027675;28;20120;-73
2021/03/11 10:00:49;;;;;;;21.50;4.38;;;13.50;99.90;;;;;;5035193;28;20109;-73
2021/03/11 10:03:20;;;;;;;25.38;4.38;;;13.30;99.90;;;;;;5027822;28;20056;-72
2021/03/11 10:05:51;;;;;;;20.23;3.78;;;13.30;99.90;;;;;;5030906;28;20022;-73
2021/03/11 10:08:41;;;;;;;25.60;4.18;;;13.20;99.90;;;;;;5030315;28;20390;-72
2021/03/11 10:11:08;;;;;;;20.58;4.63;;;13.30;99.90;;;;;;5030937;28;20029;-73
2021/03/11 10:13:49;;;;;;;21.35;4.57;;;13.40;99.90;;;;;;5029777;28;20030;-73
2021/03/11 10:16:17;;;;;;;22.67;4.15;;;13.50;99.90;;;;;;5025984;28;20021;-72
2021/03/11 10:19:07;;;;;;;22.50;4.90;;;13.70;99.90;;;;;;5031788;28;20025;-73
2021/03/11 10:21:49;;;;;;;24.83;5.53;;;13.80;99.90;;;;;;5029534;28;20045;-73
2021/03/11 10:24:41;;;;;;;22.45;4.22;;;14.00;99.90;;;;;;5028251;28;20021;-73
2021/03/11 10:27:27;;;;;;;20.40;4.27;;;14.10;99.90;;;;;;5023477;28;20112;-74
2021/03/11 10:30:13;;;;;;;21.48;4.25;;;14.00;99.90;;;;;;5030694;28;20026;-74
2021/03/11 10:32:40;;;;;;;21.50;4.65;;;14.00;99.90;;;;;;5030071;28;20788;-74
2021/03/11 10:35:08;;;;;;;21.27;5.25;;;14.00;99.90;;;;;;5026314;28;20509;-73
2021/03/11 10:37:37;;;;;;;26.98;4.35;;;14.20;99.90;;;;;;5027544;28;20102;-73
2021/03/11 10:40:06;;;;;;;19.33;4.00;;;14.10;99.90;;;;;;5029493;28;20060;-73
2021/03/11 10:42:46;;;;;;;20.40;5.55;;;14.20;99.90;;;;;;5034925;28;20036;-73
2021/03/11 10:45:15;;;;;;;18.70;3.88;;;14.20;99.90;;;;;;5028237;28;20095;-73
2021/03/11 10:47:42;;;;;;;16.42;3.83;;;13.90;99.90;;;;;;5029380;28;20014;-73
2021/03/11 10:50:21;;;;;;;27.02;4.82;;;14.00;99.90;;;;;;5032411;28;20048;-74
2021/03/11 10:52:51;;;;;;;20.20;3.45;;;13.90;99.90;;;;;;5030995;28;20432;-72
2021/03/11 10:55:33;;;;;;;22.67;4.05;;;13.80;99.90;;;;;;5026066;28;20033;-73
2021/03/11 10:58:01;;;;;;;28.67;4.90;;;13.80;99.90;;;;;;5056298;28;20060;-72
2021/03/11 11:00:34;;;;;;;15.05;2.85;;;13.90;99.90;;;;;;5031536;28;20284;-73
2021/03/11 11:03:02;;;;;;;21.48;4.25;;;13.70;99.90;;;;;;5036667;28;20402;-73
2021/03/11 11:05:29;;;;;;;13.68;2.85;;;13.70;99.90;;;;;;5031565;28;20589;-72
2021/03/11 11:07:55;;;;;;;16.23;3.72;;;13.80;99.90;;;;;;5065561;28;22401;-72
2021/03/11 11:10:23;;;;;;;14.48;2.88;;;13.60;99.90;;;;;;5031406;28;20096;-72
2021/03/11 11:12:49;;;;;;;17.45;3.03;;;13.80;99.90;;;;;;5031942;28;20072;-73
2021/03/11 11:15:15;;;;;;;14.60;2.63;;;13.90;99.90;;;;;;5030047;28;20025;-72
2021/03/11 11:17:41;;;;;;;10.43;2.63;;;14.10;99.90;;;;;;5031874;28;20108;-74
2021/03/11 11:20:10;;;;;;;13.95;3.58;;;14.20;99.90;;;;;;5034139;28;20084;-73
2021/03/11 11:22:35;;;;;;;14.63;3.05;;;14.20;99.90;;;;;;5032025;28;20029;-73
2021/03/11 11:25:03;;;;;;;12.27;2.45;;;14.10;99.90;;;;;;5033306;28;20501;-73
2021/03/11 11:27:29;;;;;;;13.32;2.90;;;14.10;99.90;;;;;;5033108;28;20044;-74
2021/03/11 11:29:54;;;;;;;13.25;3.40;;;14.20;99.90;;;;;;5038743;28;20033;-74
2021/03/11 11:32:23;;;;;;;19.38;2.75;;;14.30;99.90;;;;;;5058084;28;20432;-73
2021/03/11 11:34:49;;;;;;;12.25;3.72;;;14.20;99.90;;;;;;5030300;28;20022;-74
2021/03/11 11:37:14;;;;;;;17.52;3.60;;;14.20;99.90;;;;;;5030367;28;20477;-74
2021/03/11 11:39:42;;;;;;;15.80;2.90;;;14.20;99.90;;;;;;5065532;28;20481;-73
2021/03/11 11:42:08;;;;;;;14.55;3.08;;;14.20;99.90;;;;;;5029267;28;20497;-74
2021/03/11 11:44:33;;;;;;;14.13;2.85;;;14.20;99.90;;;;;;5027010;28;20529;-73
2021/03/11 11:46:59;;;;;;;10.73;2.28;;;14.20;99.90;;;;;;5023303;28;20102;-73
2021/03/11 11:49:24;;;;;;;17.50;3.15;;;14.10;99.90;;;;;;5025451;28;20380;-73
2021/03/11 11:51:50;;;;;;;14.05;3.67;;;14.10;99.90;;;;;;5025603;28;20042;-73
2021/03/11 11:54:16;;;;;;;14.38;3.65;;;14.00;99.90;;;;;;5017838;28;20056;-73
2021/03/11 11:56:41;;;;;;;14.05;3.63;;;13.90;99.90;;;;;;5022742;28;20026;-73
2021/03/11 11:59:07;;;;;;;17.90;4.15;;;14.00;99.90;;;;;;5034561;28;20083;-73
2021/03/11 12:01:33;;;;;;;21.73;3.80;;;14.00;99.90;;;;;;5032968;28;20095;-73
2021/03/11 12:03:58;;;;;;;22.38;3.40;;;14.00;99.90;;;;;;5034249;28;20466;-73
2021/03/11 12:06:24;;;;;;;16.85;3.88;;;14.10;99.90;;;;;;5062121;28;20478;-73
2021/03/11 12:08:50;;;;;;;21.65;3.72;;;14.00;99.90;;;;;;5030161;28;20018;-73
2021/03/11 12:11:15;;;;;;;16.52;4.10;;;14.00;99.90;;;;;;5034591;28;20067;-72
2021/03/11 12:13:41;;;;;;;18.55;3.88;;;14.00;99.90;;;;;;5038918;28;20071;-73
2021/03/11 12:16:06;;;;;;;14.57;3.63;;;13.90;99.90;;;;;;5028529;28;20068;-71
2021/03/11 12:18:32;;;;;;;13.27;3.90;;;13.80;99.90;;;;;;5029567;28;20037;-72
2021/03/11 12:20:58;;;;;;;20.25;4.25;;;13.60;99.90;;;;;;5039418;28;20141;-73
2021/03/11 12:23:24;;;;;;;18.38;3.72;;;13.70;99.90;;;;;;5038584;28;20042;-73
2021/03/11 12:25:49;;;;;;;13.38;3.65;;;13.70;99.90;;;;;;5037522;28;20120;-73
2021/03/11 12:28:15;;;;;;;15.35;3.75;;;13.70;99.90;;;;;;5036209;28;20678;-73
2021/03/11 12:30:41;;;;;;;17.42;4.35;;;13.80;99.90;;;;;;5032920;28;20466;-73
2021/03/11 12:33:06;;;;;;;18.10;4.85;;;13.90;99.90;;;;;;5019706;28;20076;-73
2021/03/11 12:35:32;;;;;;;21.90;4.50;;;13.90;99.90;;;;;;5025030;28;20044;-73
2021/03/11 12:37:58;;;;;;;17.58;3.65;;;14.10;99.90;;;;;;5031001;28;20021;-74
2021/03/11 12:40:25;;;;;;;15.52;3.60;;;14.30;99.90;;;;;;5025966;28;20059;-73
2021/03/11 12:42:50;;;;;;;14.48;3.25;;;14.40;99.90;;;;;;5029582;28;20482;-74
2021/03/11 12:45:18;;;;;;;17.08;3.28;;;14.20;99.90;;;;;;5029852;28;20050;-74